Grant Grove, California
Current Conditions -  °F | °C
As of 3:56 PM on Wednesday 28 Jan 2015 (Local Time) from KBIH Reporting Station
Clear Clear  
Wind Chill: 59°   Ceiling: Unl
Heat Index: 59°   Visibility: 10mi
Dew Point: 27°   Wind: 3mph
Humidity: 29%   Direction: 170°S
Pressure: 30.2"   Gusts: NA
Location:  36.7872°N, 118.66°W
Report Text: KBIH 282356Z AUTO 17003KT 10SM CLR 15/M03 A3020 RMK AO2 SLP211 T01501028 10161 20100 56010
Loading
Personal Weather Stations






























Interactive Weather Map New forecast layout! Learn more

10-Day Weather Forecast

Advertisements
Track Severe Weather on mobile